createdAt,value
2022-10-30T00:00:43.804Z,9.88
2022-10-30T00:03:11.850Z,9.92
2022-10-30T00:05:40.702Z,9.89
2022-10-30T00:08:07.384Z,9.93
2022-10-30T00:10:34.613Z,9.98
2022-10-30T00:13:02.500Z,9.99
2022-10-30T00:15:29.292Z,9.97
2022-10-30T00:17:56.309Z,9.98
2022-10-30T00:20:23.192Z,10.01
2022-10-30T00:22:49.823Z,10.06
2022-10-30T00:25:16.700Z,10.07
2022-10-30T00:27:43.367Z,10.07
2022-10-30T00:30:12.149Z,10.08
2022-10-30T00:32:38.811Z,10.11
2022-10-30T00:35:05.707Z,10.12
2022-10-30T00:37:32.504Z,10.17
2022-10-30T00:39:59.123Z,10.18
2022-10-30T00:42:29.251Z,10.20
2022-10-30T00:44:55.978Z,10.23
2022-10-30T00:47:36.091Z,10.21
2022-10-30T00:50:08.575Z,10.19
2022-10-30T00:52:37.191Z,10.21
2022-10-30T00:55:07.328Z,10.23
2022-10-30T00:57:34.771Z,10.27
2022-10-30T01:00:01.654Z,10.29
2022-10-30T01:02:31.156Z,10.27
2022-10-30T01:04:58.067Z,10.28
2022-10-30T01:07:24.735Z,10.30
2022-10-30T01:09:51.380Z,10.27
2022-10-30T01:12:18.024Z,10.29
2022-10-30T01:14:47.422Z,10.33
2022-10-30T01:17:34.292Z,10.30
2022-10-30T01:20:12.467Z,10.32
2022-10-30T01:22:58.266Z,10.29
2022-10-30T01:25:45.340Z,10.29
2022-10-30T01:28:11.922Z,10.30
2022-10-30T01:30:41.574Z,10.35
2022-10-30T01:33:24.134Z,10.33
2022-10-30T01:35:53.728Z,10.40
2022-10-30T01:38:29.503Z,10.35
2022-10-30T01:40:56.079Z,10.37
2022-10-30T01:43:22.697Z,10.38
2022-10-30T01:45:52.011Z,10.37
2022-10-30T01:48:18.542Z,10.37
2022-10-30T01:50:47.813Z,10.39
2022-10-30T01:53:37.579Z,10.39
2022-10-30T01:56:06.981Z,10.42
2022-10-30T01:58:44.804Z,10.49
2022-10-30T02:01:12.274Z,10.48
2022-10-30T02:03:39.276Z,10.47
2022-10-30T02:06:06.036Z,10.45
2022-10-30T02:08:32.606Z,10.45
2022-10-30T02:10:59.266Z,10.49
2022-10-30T02:13:25.921Z,10.44
2022-10-30T02:15:52.876Z,10.45
2022-10-30T02:18:19.533Z,10.46
2022-10-30T02:20:46.137Z,10.45
2022-10-30T02:23:18.946Z,10.41
2022-10-30T02:25:46.117Z,10.45
2022-10-30T02:28:12.745Z,10.43
2022-10-30T02:30:40.741Z,10.41
2022-10-30T02:33:07.422Z,10.42
2022-10-30T02:35:35.375Z,10.40
2022-10-30T02:38:02.340Z,10.37
2022-10-30T02:40:28.930Z,10.34
2022-10-30T02:42:55.542Z,10.32
2022-10-30T02:45:22.659Z,10.32
2022-10-30T02:47:49.336Z,10.30
2022-10-30T02:50:16.575Z,10.31
2022-10-30T02:52:43.253Z,10.27
2022-10-30T02:55:09.815Z,10.25
2022-10-30T02:57:37.340Z,10.18
2022-10-30T03:00:04.423Z,10.13
2022-10-30T03:02:31.618Z,10.11
2022-10-30T03:04:58.228Z,10.05
2022-10-30T03:07:24.956Z,10.06
2022-10-30T03:09:52.328Z,10.05
2022-10-30T03:12:18.982Z,10.01
2022-10-30T03:14:45.767Z,9.96
2022-10-30T03:17:12.362Z,9.91
2022-10-30T03:19:40.963Z,9.90
2022-10-30T03:22:08.014Z,9.89
2022-10-30T03:24:34.605Z,9.85
2022-10-30T03:27:01.149Z,9.87
2022-10-30T03:29:28.710Z,9.80
2022-10-30T03:31:55.291Z,9.78
2022-10-30T03:34:21.879Z,9.84
2022-10-30T03:36:48.550Z,9.73
2022-10-30T03:39:15.136Z,9.70
2022-10-30T03:41:43.496Z,9.72
2022-10-30T03:44:10.113Z,9.67
2022-10-30T03:46:36.748Z,9.68
2022-10-30T03:49:03.326Z,9.63
2022-10-30T03:51:30.009Z,9.58
2022-10-30T03:53:56.684Z,9.57
2022-10-30T03:56:23.244Z,9.53
2022-10-30T03:58:49.793Z,9.51
2022-10-30T04:01:16.434Z,9.50
2022-10-30T04:03:43.143Z,9.48
2022-10-30T04:06:09.825Z,9.43
2022-10-30T04:08:36.494Z,9.45
2022-10-30T04:11:03.485Z,9.42
2022-10-30T04:13:30.147Z,9.34
2022-10-30T04:15:58.119Z,9.35
2022-10-30T04:18:25.651Z,9.28
2022-10-30T04:20:52.271Z,9.26
2022-10-30T04:23:19.681Z,9.28
2022-10-30T04:25:46.384Z,9.28
2022-10-30T04:28:13.226Z,9.32
2022-10-30T04:30:40.594Z,9.23
2022-10-30T04:33:08.284Z,9.21
2022-10-30T04:35:37.002Z,9.17
2022-10-30T04:38:04.766Z,9.17
2022-10-30T04:40:33.063Z,9.11
2022-10-30T04:43:00.051Z,9.09
2022-10-30T04:45:27.081Z,9.15
2022-10-30T04:47:53.603Z,9.09
2022-10-30T04:50:20.154Z,9.07
2022-10-30T04:52:46.781Z,9.13
2022-10-30T04:55:13.341Z,9.06
2022-10-30T04:57:39.929Z,8.93
2022-10-30T05:00:07.822Z,8.93
2022-10-30T05:02:36.051Z,8.85
2022-10-30T05:05:03.748Z,8.86
2022-10-30T05:07:30.388Z,8.73
2022-10-30T05:09:56.967Z,8.68
2022-10-30T05:12:23.592Z,8.65
2022-10-30T05:14:50.197Z,8.57
2022-10-30T05:17:16.873Z,8.55
2022-10-30T05:19:43.498Z,8.59
2022-10-30T05:22:10.544Z,8.57
2022-10-30T05:24:37.078Z,8.50
2022-10-30T05:27:03.717Z,8.51
2022-10-30T05:29:30.248Z,8.50
2022-10-30T05:31:57.074Z,8.47
2022-10-30T05:34:23.644Z,8.52
2022-10-30T05:36:50.194Z,8.49
2022-10-30T05:39:16.762Z,8.43
2022-10-30T05:41:43.348Z,8.44
2022-10-30T05:44:09.894Z,8.45
2022-10-30T05:46:36.460Z,8.52
2022-10-30T05:49:04.057Z,8.50
2022-10-30T05:51:30.717Z,8.57
2022-10-30T05:53:57.315Z,8.54
2022-10-30T05:56:23.940Z,8.49
2022-10-30T05:58:50.563Z,8.44
2022-10-30T06:01:17.358Z,8.46
2022-10-30T06:03:44.101Z,8.44
2022-10-30T06:06:10.674Z,8.40
2022-10-30T06:08:37.500Z,8.46
2022-10-30T06:11:04.091Z,8.42
2022-10-30T06:13:30.672Z,8.46
2022-10-30T06:15:57.522Z,8.45
2022-10-30T06:18:24.266Z,8.47
2022-10-30T06:20:50.910Z,8.40
2022-10-30T06:23:17.687Z,8.52
2022-10-30T06:25:44.311Z,8.38
2022-10-30T06:28:11.611Z,8.30
2022-10-30T06:30:38.296Z,8.11
2022-10-30T06:33:05.604Z,8.01
2022-10-30T06:35:32.193Z,7.98
2022-10-30T06:38:02.063Z,7.90
2022-10-30T06:40:30.198Z,7.81
2022-10-30T06:42:57.488Z,7.78
2022-10-30T06:45:24.965Z,7.65
2022-10-30T06:47:52.252Z,7.56
2022-10-30T06:50:19.815Z,7.54
2022-10-30T06:52:46.814Z,7.62
2022-10-30T06:55:13.432Z,7.55
2022-10-30T06:57:40.015Z,7.49
2022-10-30T07:00:07.872Z,7.44
2022-10-30T07:02:34.973Z,7.33
2022-10-30T07:05:01.582Z,7.32
2022-10-30T07:07:30.072Z,7.24
2022-10-30T07:09:56.698Z,7.14
2022-10-30T07:12:23.298Z,7.14
2022-10-30T07:14:49.844Z,7.10
2022-10-30T07:17:16.404Z,7.15
2022-10-30T07:19:42.981Z,7.12
2022-10-30T07:22:09.639Z,7.08
2022-10-30T07:24:36.238Z,7.04
2022-10-30T07:27:02.815Z,7.04
2022-10-30T07:29:29.398Z,7.06
2022-10-30T07:32:03.029Z,7.04
2022-10-30T07:34:30.060Z,7.02
2022-10-30T07:36:56.633Z,7.03
2022-10-30T07:39:23.272Z,6.95
2022-10-30T07:41:50.667Z,6.97
2022-10-30T07:44:17.796Z,6.84
2022-10-30T07:46:44.396Z,6.86
2022-10-30T07:49:11.066Z,6.85
2022-10-30T07:51:37.638Z,6.87
2022-10-30T07:54:04.330Z,6.82
2022-10-30T07:56:30.987Z,6.80
2022-10-30T07:58:57.822Z,6.91
2022-10-30T08:01:24.565Z,7.10
2022-10-30T08:03:51.247Z,7.11
2022-10-30T08:06:20.160Z,7.18
2022-10-30T08:08:49.765Z,7.21
2022-10-30T08:11:16.338Z,7.27
2022-10-30T08:13:42.991Z,7.20
2022-10-30T08:16:09.570Z,7.11
2022-10-30T08:18:36.267Z,6.96
2022-10-30T08:21:02.856Z,6.95
2022-10-30T08:23:29.441Z,6.92
2022-10-30T08:26:01.926Z,6.97
2022-10-30T08:28:31.817Z,6.91
2022-10-30T08:31:00.746Z,6.96
2022-10-30T08:33:27.423Z,7.12
2022-10-30T08:35:56.588Z,6.96
2022-10-30T08:38:23.819Z,6.94
2022-10-30T08:40:50.357Z,6.97
2022-10-30T08:43:16.903Z,6.92
2022-10-30T08:45:43.571Z,6.92
2022-10-30T08:48:11.564Z,6.95
2022-10-30T08:50:38.095Z,6.98
2022-10-30T08:53:06.206Z,7.05
2022-10-30T08:55:33.180Z,7.11
2022-10-30T08:57:59.775Z,7.04
2022-10-30T09:00:26.698Z,7.00
2022-10-30T09:02:53.367Z,7.00
2022-10-30T09:05:20.334Z,7.00
2022-10-30T09:07:47.522Z,7.05
2022-10-30T09:10:14.415Z,7.00
2022-10-30T09:12:41.068Z,6.99
2022-10-30T09:15:08.127Z,6.94
2022-10-30T09:17:34.760Z,6.85
2022-10-30T09:20:01.330Z,6.87
2022-10-30T09:22:27.954Z,6.90
2022-10-30T09:24:54.507Z,6.85
2022-10-30T09:27:21.046Z,6.80
2022-10-30T09:29:47.616Z,6.90
2022-10-30T09:32:14.160Z,6.84
2022-10-30T09:34:41.073Z,6.79
2022-10-30T09:37:08.415Z,6.73
2022-10-30T09:39:34.990Z,6.68
2022-10-30T09:42:18.967Z,6.77
2022-10-30T09:44:48.762Z,6.80
2022-10-30T09:47:38.769Z,6.79
2022-10-30T09:50:11.471Z,6.74
2022-10-30T09:52:56.621Z,6.71
2022-10-30T09:55:42.078Z,6.71
2022-10-30T09:58:17.591Z,6.80
2022-10-30T10:00:49.146Z,6.87
2022-10-30T10:03:25.014Z,6.90
2022-10-30T10:05:53.522Z,6.92
2022-10-30T10:08:25.285Z,6.98
2022-10-30T10:10:54.150Z,6.94
2022-10-30T10:13:30.716Z,6.95
2022-10-30T10:15:59.972Z,6.95
2022-10-30T10:18:29.966Z,7.13
2022-10-30T10:20:59.308Z,7.20
2022-10-30T10:23:25.987Z,7.51
2022-10-30T10:25:53.999Z,8.00
2022-10-30T10:28:36.849Z,8.45
2022-10-30T10:31:06.319Z,9.01
2022-10-30T10:33:32.847Z,8.79
2022-10-30T10:36:08.330Z,8.77
2022-10-30T10:38:40.942Z,8.88
2022-10-30T10:41:22.779Z,8.59
2022-10-30T10:43:52.327Z,8.46
2022-10-30T10:46:21.897Z,8.23
2022-10-30T10:48:48.792Z,8.38
2022-10-30T10:51:18.131Z,8.37
2022-10-30T10:53:44.691Z,8.01
2022-10-30T10:56:11.667Z,7.78
2022-10-30T10:58:52.160Z,7.28
2022-10-30T11:01:21.676Z,7.17
2022-10-30T11:04:04.285Z,6.97
2022-10-30T11:06:36.350Z,6.80
2022-10-30T11:09:14.361Z,6.29
2022-10-30T11:11:41.372Z,5.59
2022-10-30T11:14:15.932Z,5.12
2022-10-30T11:17:02.709Z,4.66
2022-10-30T11:19:32.609Z,4.39
2022-10-30T11:21:59.274Z,4.26
2022-10-30T11:24:28.673Z,4.23
2022-10-30T11:27:21.985Z,4.27
2022-10-30T11:29:51.396Z,4.28
2022-10-30T11:32:26.464Z,4.24
2022-10-30T11:35:11.210Z,4.11
2022-10-30T11:37:39.069Z,4.06
2022-10-30T11:40:26.065Z,4.05
2022-10-30T11:43:01.415Z,4.29
2022-10-30T11:45:30.738Z,4.61
2022-10-30T11:48:02.433Z,4.90
2022-10-30T11:50:31.123Z,4.94
2022-10-30T11:53:02.325Z,5.09
2022-10-30T11:55:39.983Z,5.47
2022-10-30T11:58:11.505Z,5.81
2022-10-30T12:00:40.964Z,5.98
2022-10-30T12:03:26.399Z,6.17
2022-10-30T12:06:06.706Z,6.25
2022-10-30T12:08:33.446Z,6.30
2022-10-30T12:11:01.714Z,6.57
2022-10-30T12:13:30.874Z,6.59
2022-10-30T12:16:06.548Z,6.72
2022-10-30T12:18:33.596Z,6.62
2022-10-30T12:21:00.583Z,6.60
2022-10-30T12:23:28.577Z,6.81
2022-10-30T12:25:57.627Z,6.73
2022-10-30T12:28:26.303Z,6.52
2022-10-30T12:31:09.702Z,6.16
2022-10-30T12:33:45.510Z,5.97
2022-10-30T12:36:17.689Z,5.76
2022-10-30T12:39:13.752Z,5.55
2022-10-30T12:41:45.514Z,5.36
2022-10-30T12:44:16.346Z,5.11
2022-10-30T12:46:54.082Z,4.56
2022-10-30T12:49:36.019Z,4.08
2022-10-30T12:52:02.639Z,3.80
2022-10-30T12:54:32.282Z,3.66
2022-10-30T12:57:15.967Z,3.38
2022-10-30T13:00:01.357Z,3.07
2022-10-30T13:02:54.353Z,2.23
2022-10-30T13:05:56.457Z,1.87
2022-10-30T13:08:25.839Z,1.77
2022-10-30T13:11:02.364Z,1.82
2022-10-30T13:13:41.288Z,1.91
2022-10-30T13:16:14.636Z,1.89
2022-10-30T13:18:41.240Z,1.82
2022-10-30T13:21:10.804Z,1.63
2022-10-30T13:23:51.651Z,1.44
2022-10-30T13:26:24.815Z,1.31
2022-10-30T13:28:54.490Z,1.17
2022-10-30T13:31:33.250Z,1.08
2022-10-30T13:34:19.223Z,1.04
2022-10-30T13:36:51.013Z,1.02
2022-10-30T13:39:27.071Z,1.07
2022-10-30T13:42:00.027Z,1.11
2022-10-30T13:44:29.551Z,1.13
2022-10-30T13:47:05.535Z,1.14
2022-10-30T13:49:32.144Z,1.08
2022-10-30T13:52:06.231Z,1.02
2022-10-30T13:54:50.894Z,1.01
2022-10-30T13:57:17.409Z,1.00
2022-10-30T13:59:49.892Z,1.00
2022-10-30T14:02:16.572Z,1.01
2022-10-30T14:04:43.201Z,0.93
2022-10-30T14:07:24.783Z,0.93
2022-10-30T14:10:02.627Z,0.97
2022-10-30T14:12:48.656Z,0.94
2022-10-30T14:15:24.355Z,0.89
2022-10-30T14:18:09.837Z,0.95
2022-10-30T14:20:36.387Z,0.93
2022-10-30T14:23:13.371Z,0.94
2022-10-30T14:25:41.031Z,0.90
2022-10-30T14:28:20.788Z,0.91
2022-10-30T14:30:47.411Z,0.89
2022-10-30T14:33:34.003Z,0.90
2022-10-30T14:36:14.688Z,0.94
2022-10-30T14:38:41.522Z,0.85
2022-10-30T14:41:15.852Z,0.81
2022-10-30T14:43:52.422Z,0.82
2022-10-30T14:46:25.012Z,0.87
2022-10-30T14:48:54.418Z,0.87
2022-10-30T14:51:36.314Z,0.93
2022-10-30T14:54:03.142Z,0.91
2022-10-30T14:56:56.287Z,0.93
2022-10-30T14:59:24.431Z,0.96
2022-10-30T15:02:03.989Z,0.98
2022-10-30T15:04:49.052Z,0.88
2022-10-30T15:07:18.503Z,0.84
2022-10-30T15:09:45.087Z,0.80
2022-10-30T15:12:14.934Z,0.72
2022-10-30T15:14:59.490Z,0.59
2022-10-30T15:17:32.578Z,0.61
2022-10-30T15:20:00.491Z,0.67
2022-10-30T15:22:28.887Z,0.62
2022-10-30T15:24:55.916Z,0.64
2022-10-30T15:27:24.341Z,0.63
2022-10-30T15:29:53.966Z,0.62
2022-10-30T15:32:21.828Z,0.66
2022-10-30T15:34:56.419Z,0.69
2022-10-30T15:37:28.514Z,0.72
2022-10-30T15:40:24.118Z,0.71
2022-10-30T15:42:52.434Z,0.74
2022-10-30T15:45:24.205Z,0.71
2022-10-30T15:48:06.148Z,0.67
2022-10-30T15:50:33.869Z,0.65
2022-10-30T15:53:01.243Z,0.68
2022-10-30T15:55:29.599Z,0.65
2022-10-30T15:58:13.278Z,0.60
2022-10-30T16:00:40.232Z,0.54
2022-10-30T16:03:12.907Z,0.49
2022-10-30T16:05:39.622Z,0.49
2022-10-30T16:08:12.745Z,0.50
2022-10-30T16:10:39.665Z,0.46
2022-10-30T16:13:06.497Z,0.43
2022-10-30T16:15:34.764Z,0.42
2022-10-30T16:18:04.731Z,0.43
2022-10-30T16:20:31.604Z,0.42
2022-10-30T16:22:59.630Z,0.43
2022-10-30T16:25:26.322Z,0.44
2022-10-30T16:27:52.885Z,0.42
2022-10-30T16:30:19.599Z,0.42
2022-10-30T16:32:54.162Z,0.41
2022-10-30T16:35:22.889Z,0.41
2022-10-30T16:37:50.839Z,0.41
2022-10-30T16:40:19.943Z,0.44
2022-10-30T16:42:49.232Z,0.40
2022-10-30T16:45:18.675Z,0.44
2022-10-30T16:47:46.736Z,0.44
2022-10-30T16:50:15.459Z,0.40
2022-10-30T16:52:42.898Z,0.37
2022-10-30T16:55:09.696Z,0.36
2022-10-30T16:57:38.427Z,0.33
2022-10-30T17:00:05.892Z,0.31
2022-10-30T17:02:34.976Z,0.32
2022-10-30T17:05:30.941Z,0.36
2022-10-30T17:08:02.465Z,0.27
2022-10-30T17:10:36.968Z,0.27
2022-10-30T17:13:22.471Z,0.28
2022-10-30T17:15:49.118Z,0.32
2022-10-30T17:18:16.883Z,0.28
2022-10-30T17:20:43.740Z,0.28
2022-10-30T17:23:17.916Z,0.27
2022-10-30T17:25:44.754Z,0.28
2022-10-30T17:28:33.277Z,0.27
2022-10-30T17:31:20.261Z,0.24
2022-10-30T17:33:47.601Z,0.28
2022-10-30T17:36:14.306Z,0.25
2022-10-30T17:38:40.935Z,0.20
2022-10-30T17:41:08.412Z,0.24
2022-10-30T17:43:47.242Z,0.21
2022-10-30T17:46:19.241Z,0.18
2022-10-30T17:48:47.609Z,0.18
2022-10-30T17:51:15.278Z,0.19
2022-10-30T17:53:42.303Z,0.19
2022-10-30T17:56:21.673Z,0.21
2022-10-30T17:58:48.472Z,0.21
2022-10-30T18:01:17.442Z,0.21
2022-10-30T18:03:44.233Z,0.15
2022-10-30T18:06:21.620Z,0.14
2022-10-30T18:08:50.779Z,0.12
2022-10-30T18:11:21.648Z,0.15
2022-10-30T18:13:49.057Z,0.10
2022-10-30T18:16:16.303Z,0.09
2022-10-30T18:18:43.154Z,0.04
2022-10-30T18:21:12.538Z,0.11
2022-10-30T18:23:51.820Z,0.04
2022-10-30T18:26:21.269Z,0.04
2022-10-30T18:28:48.000Z,0.04
2022-10-30T18:31:15.823Z,0.02
2022-10-30T18:33:42.960Z,-0.02
2022-10-30T18:36:13.251Z,-0.01
2022-10-30T18:38:39.865Z,-0.04
2022-10-30T18:41:06.804Z,-0.01
2022-10-30T18:43:33.408Z,-0.01
2022-10-30T18:45:59.974Z,-0.02
2022-10-30T18:48:26.558Z,-0.02
2022-10-30T18:50:53.108Z,-0.06
2022-10-30T18:53:20.984Z,-0.06
2022-10-30T18:58:15.020Z,-0.04
2022-10-30T19:01:09.880Z,-0.02
2022-10-30T19:03:28.228Z,-0.05
2022-10-30T19:05:54.976Z,-0.09
2022-10-30T19:08:21.515Z,-0.06
2022-10-30T19:10:48.569Z,-0.08
2022-10-30T19:13:20.164Z,-0.09
2022-10-30T19:15:48.213Z,-0.11
2022-10-30T19:18:15.299Z,-0.12
2022-10-30T19:21:03.312Z,-0.14
2022-10-30T19:23:28.691Z,-0.12
2022-10-30T19:25:55.316Z,-0.08
2022-10-30T19:28:21.984Z,-0.15
2022-10-30T19:30:54.687Z,-0.07
2022-10-30T19:33:22.559Z,-0.10
2022-10-30T19:35:56.434Z,-0.16
2022-10-30T19:38:23.266Z,-0.15
2022-10-30T19:40:50.357Z,-0.19
2022-10-30T19:43:16.984Z,-0.22
2022-10-30T19:45:43.562Z,-0.21
2022-10-30T19:48:20.668Z,-0.21
2022-10-30T19:50:51.558Z,-0.20
2022-10-30T19:53:18.275Z,-0.25
2022-10-30T19:55:44.995Z,-0.22
2022-10-30T19:58:15.454Z,-0.22
2022-10-30T20:00:46.809Z,-0.25
2022-10-30T20:03:15.024Z,-0.24
2022-10-30T20:05:43.094Z,-0.23
2022-10-30T20:08:14.346Z,-0.30
2022-10-30T20:10:42.122Z,-0.30
2022-10-30T20:13:09.828Z,-0.29
2022-10-30T20:15:36.478Z,-0.33
2022-10-30T20:18:03.972Z,-0.33
2022-10-30T20:20:34.353Z,-0.29
2022-10-30T20:23:01.930Z,-0.32
2022-10-30T20:25:28.557Z,-0.32
2022-10-30T20:28:05.727Z,-0.30
2022-10-30T20:30:33.681Z,-0.29
2022-10-30T20:33:00.704Z,-0.32
2022-10-30T20:35:27.445Z,-0.29
2022-10-30T20:38:01.518Z,-0.35
2022-10-30T20:40:28.697Z,-0.32
2022-10-30T20:42:58.439Z,-0.32
2022-10-30T20:45:29.333Z,-0.35
2022-10-30T20:47:56.184Z,-0.36
2022-10-30T20:50:22.900Z,-0.36
2022-10-30T20:52:49.443Z,-0.39
2022-10-30T20:55:16.059Z,-0.42
2022-10-30T20:57:42.744Z,-0.39
2022-10-30T21:00:11.063Z,-0.32
2022-10-30T21:02:37.727Z,-0.37
2022-10-30T21:05:11.840Z,-0.42
2022-10-30T21:07:50.254Z,-0.44
2022-10-30T21:10:17.029Z,-0.42
2022-10-30T21:12:43.709Z,-0.44
2022-10-30T21:15:10.443Z,-0.47
2022-10-30T21:17:36.998Z,-0.45
2022-10-30T21:20:03.788Z,-0.36
2022-10-30T21:22:31.007Z,-0.38
2022-10-30T21:24:57.580Z,-0.51
2022-10-30T21:27:24.174Z,-0.51
2022-10-30T21:29:50.764Z,-0.52
2022-10-30T21:32:17.346Z,-0.55
2022-10-30T21:34:43.986Z,-0.60
2022-10-30T21:37:10.619Z,-0.62
2022-10-30T21:39:37.244Z,-0.55
2022-10-30T21:42:03.817Z,-0.55
2022-10-30T21:44:30.364Z,-0.58
2022-10-30T21:46:56.943Z,-0.60
2022-10-30T21:49:23.614Z,-0.64
2022-10-30T21:51:50.666Z,-0.65
2022-10-30T21:54:18.308Z,-0.63
2022-10-30T21:56:45.235Z,-0.67
2022-10-30T21:59:12.564Z,-0.70
2022-10-30T22:01:39.902Z,-0.71
2022-10-30T22:04:08.698Z,-0.67
2022-10-30T22:06:37.894Z,-0.69
2022-10-30T22:09:04.499Z,-0.64
2022-10-30T22:11:31.069Z,-0.63
2022-10-30T22:13:59.343Z,-0.62
2022-10-30T22:16:26.959Z,-0.63
2022-10-30T22:18:53.635Z,-0.58
2022-10-30T22:21:20.254Z,-0.63
2022-10-30T22:23:46.958Z,-0.59
2022-10-30T22:26:16.050Z,-0.65
2022-10-30T22:28:43.199Z,-0.67
2022-10-30T22:31:19.257Z,-0.65
2022-10-30T22:33:46.244Z,-0.70
2022-10-30T22:36:23.325Z,-0.71
2022-10-30T22:38:54.426Z,-0.74
2022-10-30T22:41:21.710Z,-0.70
2022-10-30T22:43:48.920Z,-0.72
2022-10-30T22:46:16.735Z,-0.77
2022-10-30T22:48:43.981Z,-0.80
2022-10-30T22:51:15.096Z,-0.80
2022-10-30T22:53:43.221Z,-0.84
2022-10-30T22:56:17.482Z,-0.79
2022-10-30T22:58:45.548Z,-0.79
2022-10-30T23:01:13.486Z,-0.79
2022-10-30T23:03:40.422Z,-0.79
2022-10-30T23:06:07.410Z,-0.81
2022-10-30T23:08:34.352Z,-0.74
2022-10-30T23:11:01.000Z,-0.75
2022-10-30T23:13:27.811Z,-0.75
2022-10-30T23:15:56.288Z,-0.79
2022-10-30T23:18:25.587Z,-0.79
2022-10-30T23:20:52.153Z,-0.79
2022-10-30T23:23:18.750Z,-0.82
2022-10-30T23:25:45.309Z,-0.78
2022-10-30T23:28:11.970Z,-0.83
2022-10-30T23:30:41.344Z,-0.84
2022-10-30T23:33:07.904Z,-0.84
2022-10-30T23:35:34.478Z,-0.82
2022-10-30T23:38:01.080Z,-0.79
2022-10-30T23:40:27.638Z,-0.81
2022-10-30T23:42:54.970Z,-0.73
2022-10-30T23:45:22.502Z,-0.78
2022-10-30T23:47:49.410Z,-0.80
2022-10-30T23:50:16.063Z,-0.80
2022-10-30T23:52:42.668Z,-0.82
2022-10-30T23:55:09.464Z,-0.83
2022-10-30T23:57:36.099Z,-0.83
